• Join FlightAware (Why Join?)
  • Login
  • US Flag 
12:30PM EST


 

Airport Tracker/Info


-or-


 

Live Flight TrackerFlight Track Log ✈ FWK988 ✈ 26-Sep-2013 ✈ KHEF - KSRQ

Flight Track Log - Related Links

Times and Time Zones

All times are in EDT time to prevent confusion due to time zone crossing. See the FWK988 flight status page for this flight to view local times or setup timezone preferences in your user account.

Time Position Orientation Groundspeed Altitude Reporting Facility
EDT Latitude Longitude Course Direction KTS MPH feet Rate Location/Type
03:39PM 38.7500 -77.5833 218° Southwest 239 275 2,000  Level Potomac TRACON
03:40PM 38.7167 -77.6500 237° Southwest 260 299 3,600 2,700 Climbing Potomac TRACON
03:42PM 38.6214 -77.7228 211° Southwest 271 312 8,900 3,000 Climbing Washington Center
03:43PM 38.5478 -77.7658 205° Southwest 272 313 11,400 2,040 Climbing Washington Center
03:44PM 38.4631 -77.8350 213° Southwest 321 369 13,100 1,680 Climbing Washington Center
03:45PM 38.0670 -77.8484 218° Southwest  Level Estimated
03:45PM 38.3911 -77.8883 210° Southwest 356 410 14,800  Level Washington Center
03:46PM 38.2792 -77.9669 209° Southwest 386 444 17,400 2,400 Climbing Washington Center
03:47PM 38.1839 -78.0353 209° Southwest 386 444 19,600 1,920 Climbing Washington Center
03:48PM 38.0886 -78.1008 208° Southwest 386 444 21,300 1,440 Climbing Washington Center
03:49PM 37.9933 -78.1739 211° Southwest 396 456 22,600 1,260 Climbing Washington Center
03:50PM 37.9017 -78.2631 218° Southwest 408 470 23,900 1,320 Climbing Washington Center
03:51PM 37.8078 -78.3542 217° Southwest 420 483 25,200 1,260 Climbing Washington Center
03:52PM 37.7097 -78.4478 217° Southwest 432 497 26,500 1,200 Climbing Washington Center
03:53PM 37.6094 -78.5411 216° Southwest 444 511 27,700 1,440 Climbing Washington Center
03:54PM 37.5217 -78.6242 217° Southwest 449 517 29,400 1,740 Climbing Washington Center
03:55PM 37.4236 -78.7142 216° Southwest 444 511 31,200 1,260 Climbing Washington Center
03:56PM 37.3272 -78.8044 217° Southwest 444 511 32,000 360 Climbing Washington Center
03:57PM 37.2225 -78.8992 216° Southwest 454 522 32,000 180 Level Washington Center
03:58PM 37.1025 -79.0111 217° Southwest 479 551 32,400 480 Climbing Washington Center
03:59PM 36.9953 -79.1078 216° Southwest 485 558 33,000 780 Climbing Washington Center
04:00PM 36.8903 -79.2069 217° Southwest 485 558 34,000 1,140 Climbing Washington Center
04:01PM 36.7892 -79.3008 217° Southwest 479 551 35,300 960 Climbing Washington Center
04:02PM 36.6861 -79.3942 216° Southwest 466 536 36,000 780 Climbing Washington Center
04:04PM 36.4414 -79.6128 216° Southwest 441 507 38,000 540 Climbing Atlanta Center
04:05PM 36.3425 -79.7033 216° Southwest 441 507 38,000  Level Atlanta Center
04:06PM 36.2414 -79.7936 216° Southwest 447 514 38,000  Level Atlanta Center
04:07PM 36.1425 -79.8864 217° Southwest 452 520 38,000  Level Atlanta Center
04:08PM 36.0492 -79.9656 214° Southwest 452 520 38,000  Level Atlanta Center
04:09PM 35.9344 -80.0328 205° Southwest 452 520 38,000 120 Level Atlanta Center
04:10PM 35.8153 -80.0875 200° South 458 527 38,300 900 Climbing Atlanta Center
04:11PM 35.6881 -80.1497 202° Southwest 458 527 39,800 840 Climbing Atlanta Center
04:12PM 35.5750 -80.2089 203° Southwest 446 513 40,000 60 Climbing Atlanta Center
04:13PM 35.4619 -80.2625 201° Southwest 446 513 40,000  Level Atlanta Center
04:14PM 35.3469 -80.3186 202° Southwest 446 513 40,000  Level Atlanta Center
04:15PM 35.2442 -80.3717 203° Southwest 451 519 40,000  Level Atlanta Center
04:18PM 34.9694 -80.5011 201° Southwest 457 526 40,000  Level Jacksonville Center
04:19PM 34.8517 -80.5603 202° Southwest 457 526 40,000  Level Jacksonville Center
04:20PM 34.7442 -80.6186 204° Southwest 447 514 40,000  Level Jacksonville Center
04:21PM 34.6264 -80.6747 201° Southwest 442 509 40,000  Level Jacksonville Center
04:22PM 34.5022 -80.7333 201° Southwest 473 544 40,000  Level Jacksonville Center
04:23PM 34.3739 -80.7944 201° Southwest 461 531 40,000  Level Jacksonville Center
04:24PM 34.2747 -80.8419 202° Southwest 440 506 40,000  Level Jacksonville Center
04:25PM 34.1586 -80.8975 202° Southwest 440 506 40,000  Level Jacksonville Center
04:26PM 34.0428 -80.9528 202° Southwest 440 506 40,000  Level Jacksonville Center
04:27PM 33.9267 -81.0078 201° Southwest 451 519 40,000  Level Jacksonville Center
04:28PM 33.7981 -81.0656 200° South 446 513 40,000  Level Jacksonville Center
04:29PM 33.6903 -81.1203 203° Southwest 453 521 40,000  Level Jacksonville Center
04:30PM 33.5742 -81.1750 201° Southwest 453 521 40,000  Level Jacksonville Center
04:31PM 33.4561 -81.2269 200° South 448 516 40,000  Level Jacksonville Center
04:32PM 33.3400 -81.2839 202° Southwest 448 516 40,000  Level Jacksonville Center
04:33PM 33.2236 -81.3283 198° South 448 516 40,000  Level Jacksonville Center
04:34PM 33.0967 -81.3628 193° South 448 516 40,000  Level Jacksonville Center
04:35PM 32.9739 -81.3969 193° South 454 522 40,000  Level Jacksonville Center
04:36PM 32.8511 -81.4311 193° South 454 522 40,000  Level Jacksonville Center
04:37PM 32.7283 -81.4653 193° South 454 522 40,000  Level Jacksonville Center
04:38PM 32.5953 -81.5019 193° South 446 513 40,000  Level Jacksonville Center
04:39PM 32.4725 -81.5358 193° South 451 519 40,000  Level Jacksonville Center
04:40PM 32.3497 -81.5719 194° South 451 519 40,000  Level Jacksonville Center
04:41PM 32.2267 -81.6033 192° South 451 519 40,000  Level Jacksonville Center
04:42PM 32.1164 -81.6367 194° South 451 519 40,000  Level Jacksonville Center
04:43PM 31.9831 -81.6681 191° South 451 519 40,000  Level Jacksonville Center
04:44PM 31.8603 -81.7014 193° South 451 519 40,000  Level Jacksonville Center
04:45PM 31.7375 -81.7347 193° South 453 521 40,000  Level Jacksonville Center
04:46PM 31.6144 -81.7678 193° South 453 521 40,000  Level Jacksonville Center
04:47PM 31.5042 -81.7961 192° South 453 521 40,000  Level Jacksonville Center
04:48PM 31.3708 -81.8317 193° South 453 521 40,000  Level Jacksonville Center
04:49PM 31.2625 -81.8619 193° South 448 516 40,000  Level Jacksonville Center
04:50PM 31.1394 -81.8975 194° South 453 521 40,000  Level Jacksonville Center
04:51PM 31.0167 -81.9278 192° South 453 521 40,000  Level Jacksonville Center
04:52PM 30.8936 -81.9606 193° South 453 521 40,000  Level Jacksonville Center
04:53PM 30.7728 -81.9931 193° South 453 521 40,000  Level Jacksonville Center
04:54PM 30.6353 -82.0306 193° South 453 521 40,000  Level Jacksonville Center
04:55PM 30.5228 -82.0533 190° South 448 516 40,000  Level Jacksonville Center
04:56PM 30.4017 -82.0858 193° South 448 516 40,000 -120 Level Jacksonville Center
04:57PM 30.2767 -82.1156 192° South 448 516 39,800 -1,200 Descending Jacksonville Center
04:58PM 30.1517 -82.1503 194° South 453 521 37,600 -2,460 Descending Jacksonville Center
04:59PM 30.0161 -82.1897 194° South 453 521 35,000 -2,520 Descending Jacksonville Center
05:00PM 29.8911 -82.2242 193° South 453 521 32,600 -2,400 Descending Jacksonville Center
05:01PM 29.7658 -82.2561 192° South 453 521 30,200 -2,400 Descending Jacksonville Center
05:02PM 29.6469 -82.2642 183° South 459 528 27,900 -2,280 Descending Jacksonville Center
05:03PM 29.5194 -82.2458 173° South 464 534 25,700 -2,100 Descending Jacksonville Center
05:04PM 29.3881 -82.2275 173° South 469 540 23,800 -1,800 Descending Jacksonville Center
05:05PM 29.2564 -82.2069 172° South 477 549 22,100 -1,740 Descending Jacksonville Center
05:06PM 29.1289 -82.1867 172° South 477 549 20,400 -1,980 Descending Jacksonville Center
05:07PM 28.9953 -82.1686 173° South 458 527 18,200 -2,220 Descending Jacksonville Center
05:08PM 28.8886 -82.1528 173° South 445 512 16,000 -1,980 Descending Jacksonville Center
05:10PM 28.6333 -82.1333 176° South 403 464 12,100 -1,320 Descending Tampa TRACON
05:11PM 28.5333 -82.1333 180° South 403 464 12,000 -60 Descending Tampa TRACON
05:12PM 28.4167 -82.1500 187° South 403 464 12,000  Level Tampa TRACON
05:13PM 28.3000 -82.1667 187° South 404 465 12,000 -240 Level Tampa TRACON
05:14PM 28.2000 -82.1833 188° South 372 428 11,600 -1,080 Descending Tampa TRACON
05:15PM 28.1167 -82.1833 180° South 312 359 10,000 -1,500 Descending Tampa TRACON
05:16PM 28.0333 -82.2000 190° South 280 322 8,600 -1,500 Descending Tampa TRACON
05:17PM 27.9500 -82.2000 180° South 287 330 7,100 -1,320 Descending Tampa TRACON
05:18PM 27.8833 -82.2167 192° South 276 318 6,000 -600 Descending Tampa TRACON
05:19PM 27.8000 -82.2500 199° South 285 328 6,000  Level Tampa TRACON
05:20PM 27.7333 -82.2833 204° Southwest 280 322 6,000  Level Tampa TRACON
05:21PM 27.6667 -82.3167 204° Southwest 275 316 6,000 -600 Level Tampa TRACON
05:22PM 27.5833 -82.3333 190° South 286 329 4,900 -1,140 Descending Tampa TRACON
05:23PM 27.5000 -82.3500 190° South 279 321 3,700 -960 Descending Tampa TRACON
05:24PM 27.4333 -82.3667 193° South 253 291 3,000 -900 Descending Tampa TRACON
05:25PM 27.3667 -82.3833 193° South 250 288 2,000 -480 Descending Tampa TRACON
05:26PM 27.3333 -82.4500 241° Southwest 176 203 2,000 -360 Level Tampa TRACON
05:27PM 27.3333 -82.4833 270° West 141 162 1,300 -720 Descending Tampa TRACON
05:28PM 27.3667 -82.5167 318° Northwest 120 138 700 -600 Descending Tampa TRACON
05:30PM 27.3954 -82.5544 311° West  Level Estimated
05:37PM 27.3954 -82.5544 13° North  Level Estimated
05:38PM 27.3954 -82.5544 13° North  Level Estimated